Time;durP1;ratioP1;P1;durP2;ratioP2;P2;SDS_P1;SDS_P2;PMS_P1;PMS_P2;Temp;Humidity;BMP_temperature;BMP_pressure;BME280_temperature;BME280_humidity;BME280_pressure;Samples;Min_cycle;Max_cycle;Signal;HPM_P1;HPM_P2
2023/05/29 00:01:27;;;;;;;5.47;2.45;;;;;;;6.56;100.00;102278.03;6195414;23;20050;-78
2023/05/29 00:03:52;;;;;;;4.80;2.35;;;;;;;6.49;100.00;102272.31;6195640;23;20012;-78
2023/05/29 00:06:19;;;;;;;6.72;2.40;;;;;;;6.43;100.00;102275.44;6195349;23;20010;-78
2023/05/29 00:08:45;;;;;;;6.35;3.17;;;;;;;6.46;100.00;102280.56;6220529;23;20004;-78
2023/05/29 00:11:11;;;;;;;11.65;3.13;;;;;;;6.38;100.00;102267.75;6220209;23;20431;-77
2023/05/29 00:13:37;;;;;;;9.68;3.00;;;;;;;6.39;100.00;102273.94;6195553;23;20031;-78
2023/05/29 00:16:03;;;;;;;6.65;2.78;;;;;;;6.26;100.00;102259.75;6170458;23;20135;-78
2023/05/29 00:18:29;;;;;;;11.02;2.65;;;;;;;6.35;100.00;102276.00;6170734;23;20008;-81
2023/05/29 00:20:55;;;;;;;4.78;2.40;;;;;;;6.52;100.00;102276.56;6246885;23;20333;-79
2023/05/29 00:23:21;;;;;;;5.82;2.28;;;;;;;6.63;100.00;102278.47;6220653;23;20007;-80
2023/05/29 00:25:47;;;;;;;4.72;2.35;;;;;;;6.82;100.00;102270.78;6220212;23;20007;-78
2023/05/29 00:28:13;;;;;;;5.63;2.03;;;;;;;7.04;100.00;102264.69;6195199;23;20328;-78
2023/05/29 00:30:39;;;;;;;2.45;1.60;;;;;;;7.22;100.00;102265.97;6170110;23;20007;-79
2023/05/29 00:33:05;;;;;;;4.22;2.30;;;;;;;7.31;100.00;102252.84;6170411;23;20011;-78
2023/05/29 00:35:31;;;;;;;10.73;2.55;;;;;;;7.31;100.00;102236.81;6220389;23;20039;-79
2023/05/29 00:37:57;;;;;;;8.20;2.58;;;;;;;7.41;100.00;102256.50;6220253;23;20023;-80
2023/05/29 00:40:23;;;;;;;9.38;2.83;;;;;;;7.44;100.00;102277.69;6195003;23;20377;-80
2023/05/29 00:42:49;;;;;;;1.60;1.35;;;;;;;7.42;100.00;102274.28;6170169;23;20011;-80
2023/05/29 00:45:15;;;;;;;3.42;2.22;;;;;;;7.38;100.00;102276.34;6194928;23;20035;-79
2023/05/29 00:47:41;;;;;;;6.03;2.08;;;;;;;7.35;100.00;102287.25;6195156;23;20004;-78
2023/05/29 00:50:09;;;;;;;6.63;2.40;;;;;;;7.19;100.00;102281.38;6194778;23;20004;-79
2023/05/29 00:52:35;;;;;;;1.70;1.05;;;;;;;7.05;100.00;102285.94;6194860;23;20039;-79
2023/05/29 00:55:02;;;;;;;6.75;2.42;;;;;;;7.09;100.00;102281.22;6195060;23;20004;-79
2023/05/29 00:57:28;;;;;;;3.50;1.65;;;;;;;7.12;100.00;102277.47;6220322;23;20035;-79
2023/05/29 00:59:55;;;;;;;4.85;2.35;;;;;;;7.19;100.00;102270.69;6200922;23;20076;-79
2023/05/29 01:02:22;;;;;;;8.40;3.00;;;;;;;7.24;100.00;102274.72;6219897;23;20039;-78
2023/05/29 01:04:48;;;;;;;2.33;1.55;;;;;;;7.14;100.00;102246.09;6246597;22;20011;-78
2023/05/29 01:07:13;;;;;;;6.88;2.65;;;;;;;7.25;100.00;102275.56;6219850;23;20328;-79
2023/05/29 01:09:40;;;;;;;6.13;2.53;;;;;;;7.22;100.00;102270.44;6245255;23;20007;-81
2023/05/29 01:12:28;;;;;;;4.72;2.00;;;;;;;7.17;100.00;102269.94;6246717;22;20444;-82
2023/05/29 01:15:22;;;;;;;11.48;2.75;;;;;;;7.01;100.00;102273.81;6245006;23;20018;-79
2023/05/29 01:18:01;;;;;;;8.13;2.33;;;;;;;6.88;100.00;102272.13;6220154;23;20008;-79
2023/05/29 01:20:41;;;;;;;5.45;2.08;;;;;;;6.74;100.00;102260.66;6219756;23;20008;-79
2023/05/29 01:23:19;;;;;;;8.23;2.80;;;;;;;6.75;100.00;102288.25;6195528;23;20095;-80
2023/05/29 01:26:01;;;;;;;9.93;2.40;;;;;;;6.63;100.00;102281.13;6246600;23;20000;-79
2023/05/29 01:28:32;;;;;;;5.43;2.85;;;;;;;6.48;100.00;102283.94;6244942;23;20005;-79
2023/05/29 01:31:00;;;;;;;5.90;2.65;;;;;;;6.25;100.00;102279.44;6219605;23;20004;-79
2023/05/29 01:33:27;;;;;;;9.73;2.72;;;;;;;5.94;100.00;102260.25;6195249;23;20062;-78
2023/05/29 01:35:53;;;;;;;4.97;1.92;;;;;;;5.85;100.00;102277.75;6194858;23;20424;-78
2023/05/29 01:38:18;;;;;;;3.22;1.77;;;;;;;5.86;100.00;102278.59;6244824;23;20061;-78
2023/05/29 01:40:44;;;;;;;8.07;3.42;;;;;;;5.90;100.00;102270.28;6219850;23;20005;-80
2023/05/29 01:43:10;;;;;;;4.10;1.85;;;;;;;5.90;100.00;102256.94;6246359;22;20006;-78
2023/05/29 01:45:36;;;;;;;5.20;2.25;;;;;;;6.03;100.00;102256.06;6244469;23;20004;-78
2023/05/29 01:48:02;;;;;;;8.43;3.45;;;;;;;6.25;100.00;102263.41;6219300;23;20432;-80
2023/05/29 01:50:28;;;;;;;10.32;3.00;;;;;;;6.39;100.00;102279.28;6244905;23;20432;-78
2023/05/29 01:52:54;;;;;;;3.92;1.92;;;;;;;6.41;100.00;102269.34;6219548;23;20102;-78
2023/05/29 01:55:23;;;;;;;9.30;2.45;;;;;;;6.48;100.00;102285.78;6219749;23;20039;-79
2023/05/29 01:57:49;;;;;;;5.72;2.17;;;;;;;6.46;100.00;102267.19;6245948;22;20004;-80
2023/05/29 02:00:17;;;;;;;5.97;2.17;;;;;;;6.42;100.00;102271.03;6194500;23;20008;-79
2023/05/29 02:02:42;;;;;;;9.10;2.45;;;;;;;6.33;100.00;102239.66;6219374;23;20336;-79
2023/05/29 02:05:08;;;;;;;5.80;2.90;;;;;;;6.48;100.00;102264.38;6246076;23;20007;-79
2023/05/29 02:07:36;;;;;;;4.35;2.38;;;;;;;6.53;100.00;102262.25;6246301;22;20027;-81
2023/05/29 02:10:03;;;;;;;4.35;2.25;;;;;;;6.54;100.00;102267.47;6219569;23;20030;-80
2023/05/29 02:12:29;;;;;;;5.45;2.65;;;;;;;6.47;100.00;102273.38;6194499;23;20004;-79
2023/05/29 02:14:55;;;;;;;6.40;3.05;;;;;;;6.18;100.00;102252.31;6246072;22;20011;-79
2023/05/29 02:17:21;;;;;;;5.22;2.45;;;;;;;6.12;100.00;102282.13;6245049;23;20062;-79
2023/05/29 02:19:46;;;;;;;6.63;2.28;;;;;;;5.96;100.00;102287.69;6244451;23;20020;-79
2023/05/29 02:22:12;;;;;;;5.05;2.50;;;;;;;5.77;100.00;102277.44;6219475;23;20008;-79
2023/05/29 02:24:38;;;;;;;4.32;1.85;;;;;;;5.70;100.00;102278.81;6244685;23;20003;-79
2023/05/29 02:27:03;;;;;;;11.30;2.13;;;;;;;5.67;100.00;102279.03;6244423;23;20437;-79
2023/05/29 02:29:29;;;;;;;10.27;1.98;;;;;;;5.71;100.00;102284.03;6244730;23;20008;-79
2023/05/29 02:31:55;;;;;;;8.98;2.55;;;;;;;5.73;100.00;102281.25;6244718;23;20000;-81
2023/05/29 02:34:24;;;;;;;8.57;2.05;;;;;;;5.71;100.00;102281.34;6244589;23;20377;-79
2023/05/29 02:36:51;;;;;;;4.47;2.47;;;;;;;5.69;100.00;102298.47;6244785;23;20007;-78
2023/05/29 02:39:17;;;;;;;8.93;2.60;;;;;;;5.51;100.00;102297.91;6194581;23;20004;-79
2023/05/29 02:41:43;;;;;;;6.78;2.53;;;;;;;5.31;100.00;102293.06;6244696;23;20032;-78
2023/05/29 02:44:09;;;;;;;11.18;2.78;;;;;;;5.14;100.00;102296.88;6245759;23;20344;-78
2023/05/29 02:46:34;;;;;;;11.82;2.40;;;;;;;5.05;100.00;102277.88;6246263;22;20296;-80
2023/05/29 02:49:00;;;;;;;8.35;2.28;;;;;;;5.09;100.00;102277.69;6246267;23;20003;-78
2023/05/29 02:51:27;;;;;;;5.93;1.98;;;;;;;5.12;100.00;102288.13;6244677;23;20000;-78
2023/05/29 02:53:52;;;;;;;6.75;2.65;;;;;;;5.05;100.00;102271.69;6219464;23;20003;-79
2023/05/29 02:56:18;;;;;;;5.60;2.15;;;;;;;5.17;100.00;102286.84;6245872;22;20096;-78
2023/05/29 02:58:45;;;;;;;9.75;2.50;;;;;;;5.21;100.00;102288.38;6219426;23;20429;-79
2023/05/29 03:01:10;;;;;;;4.78;2.13;;;;;;;5.18;100.00;102282.38;6219413;23;20340;-78
2023/05/29 03:03:36;;;;;;;4.40;2.33;;;;;;;5.14;100.00;102289.75;6244582;23;20008;-78
2023/05/29 03:06:01;;;;;;;5.75;2.00;;;;;;;5.10;100.00;102284.72;6245710;23;20425;-79
2023/05/29 03:08:28;;;;;;;6.85;2.00;;;;;;;5.17;100.00;102286.84;6246172;22;20004;-78
2023/05/29 03:10:55;;;;;;;5.63;1.67;;;;;;;5.20;100.00;102285.81;6246099;23;20420;-79
2023/05/29 03:13:20;;;;;;;4.68;2.40;;;;;;;5.30;100.00;102289.56;6219384;23;20004;-77
2023/05/29 03:15:47;;;;;;;5.22;2.17;;;;;;;5.32;100.00;102289.44;6219010;23;20008;-79
2023/05/29 03:18:12;;;;;;;6.05;2.53;;;;;;;5.33;100.00;102297.34;6219443;23;20368;-78
2023/05/29 03:20:38;;;;;;;6.95;2.30;;;;;;;5.32;100.00;102295.66;6219976;23;20092;-78
2023/05/29 03:23:04;;;;;;;5.30;2.00;;;;;;;5.21;100.00;102290.16;6247940;23;20055;-78
2023/05/29 03:25:29;;;;;;;4.63;2.13;;;;;;;5.19;100.00;102300.09;6247831;22;20004;-78
2023/05/29 03:27:55;;;;;;;2.83;1.60;;;;;;;5.14;100.00;102295.06;6246395;23;20412;-78
2023/05/29 03:30:21;;;;;;;4.50;1.90;;;;;;;5.15;100.00;102295.91;6247834;23;19996;-78
2023/05/29 03:32:46;;;;;;;6.22;2.15;;;;;;;5.17;100.00;102296.69;6246365;23;20006;-78
2023/05/29 03:35:12;;;;;;;5.95;2.28;;;;;;;5.04;100.00;102284.16;6247478;23;20031;-79
2023/05/29 03:37:37;;;;;;;7.20;2.17;;;;;;;5.01;100.00;102289.69;6221027;23;20379;-79
2023/05/29 03:40:04;;;;;;;4.47;2.00;;;;;;;5.00;100.00;102292.44;6195874;23;20427;-78
2023/05/29 03:42:31;;;;;;;4.82;1.98;;;;;;;4.90;100.00;102278.06;6220720;23;20004;-78
2023/05/29 03:44:56;;;;;;;3.97;1.77;;;;;;;4.98;100.00;102289.06;6246067;23;20054;-79
2023/05/29 03:47:22;;;;;;;4.47;2.13;;;;;;;5.02;100.00;102288.72;6247647;22;20432;-79
2023/05/29 03:49:48;;;;;;;7.20;2.40;;;;;;;4.99;100.00;102290.75;6247465;22;20075;-78
2023/05/29 03:52:14;;;;;;;7.10;2.70;;;;;;;4.99;100.00;102294.28;6247290;23;20004;-78
2023/05/29 03:54:40;;;;;;;2.25;1.75;;;;;;;5.02;100.00;102298.53;6245823;23;20008;-78
2023/05/29 03:57:06;;;;;;;5.10;2.17;;;;;;;5.09;100.00;102291.84;6220859;23;20425;-79
2023/05/29 03:59:32;;;;;;;2.58;1.67;;;;;;;5.06;100.00;102294.72;6245680;23;20074;-79
2023/05/29 04:01:58;;;;;;;9.00;2.13;;;;;;;5.00;100.00;102284.47;6246167;23;20040;-78
2023/05/29 04:04:24;;;;;;;3.50;2.05;;;;;;;4.89;100.00;102282.50;6247561;22;20006;-78
2023/05/29 04:06:49;;;;;;;7.13;2.30;;;;;;;4.98;100.00;102284.56;6246119;23;20023;-78
2023/05/29 04:09:15;;;;;;;2.53;1.33;;;;;;;4.96;100.00;102282.97;6220844;23;20004;-79
2023/05/29 04:11:41;;;;;;;3.03;1.95;;;;;;;4.97;100.00;102274.84;6220687;23;20054;-78
2023/05/29 04:14:07;;;;;;;3.70;1.80;;;;;;;5.11;100.00;102275.75;6245715;23;20425;-80
2023/05/29 04:16:32;;;;;;;4.82;2.40;;;;;;;5.18;100.00;102277.88;6195177;23;20015;-79
2023/05/29 04:18:58;;;;;;;7.85;2.83;;;;;;;5.28;100.00;102291.47;6245720;23;20363;-79
2023/05/29 04:21:24;;;;;;;5.47;1.30;;;;;;;5.22;100.00;102284.75;6245671;23;20000;-79
2023/05/29 04:23:49;;;;;;;2.45;1.42;;;;;;;5.27;100.00;102301.28;6220378;23;20004;-79
2023/05/29 04:26:15;;;;;;;6.43;1.88;;;;;;;5.33;100.00;102296.50;6195299;23;20010;-78
2023/05/29 04:28:42;;;;;;;8.63;2.22;;;;;;;5.27;100.00;102292.44;6220751;23;20004;-78
2023/05/29 04:31:08;;;;;;;7.78;2.40;;;;;;;5.13;100.00;102295.16;6245738;23;19996;-79
2023/05/29 04:33:36;;;;;;;4.88;1.67;;;;;;;5.05;100.00;102296.56;6195282;23;20014;-78
2023/05/29 04:36:03;;;;;;;4.60;2.05;;;;;;;5.15;100.00;102304.78;6221163;23;20047;-79
2023/05/29 04:38:29;;;;;;;2.25;1.48;;;;;;;5.29;100.00;102312.72;6226598;23;20008;-79
2023/05/29 04:40:58;;;;;;;5.72;1.83;;;;;;;5.44;100.00;102310.81;6250017;22;20118;-79
2023/05/29 04:43:26;;;;;;;3.15;1.60;;;;;;;5.53;100.00;102304.00;6195933;23;20007;-79
2023/05/29 04:45:53;;;;;;;4.65;2.10;;;;;;;5.61;100.00;102301.66;6245259;23;20023;-79
2023/05/29 04:48:18;;;;;;;4.03;2.00;;;;;;;5.50;100.00;102278.41;6195523;23;20011;-78
2023/05/29 04:50:45;;;;;;;5.47;2.60;;;;;;;5.72;100.00;102309.78;6220403;23;20328;-79
2023/05/29 04:53:11;;;;;;;3.40;1.95;;;;;;;5.82;100.00;102304.66;6220504;23;20008;-78
2023/05/29 04:55:36;;;;;;;4.90;2.08;;;;;;;5.93;100.00;102307.47;6220323;23;20040;-79
2023/05/29 04:58:02;;;;;;;5.07;2.22;;;;;;;6.11;100.00;102316.00;6195515;23;20074;-78
2023/05/29 05:00:28;;;;;;;5.63;2.22;;;;;;;6.19;100.00;102307.41;6245066;23;20517;-79
2023/05/29 05:02:53;;;;;;;7.07;3.08;;;;;;;6.37;100.00;102315.94;6245078;23;20067;-79
2023/05/29 05:05:20;;;;;;;4.47;2.00;;;;;;;6.49;100.00;102319.56;6245039;23;20022;-78
2023/05/29 05:07:45;;;;;;;4.47;2.03;;;;;;;6.62;100.00;102320.38;6195283;23;20008;-78
2023/05/29 05:10:11;;;;;;;2.42;1.60;;;;;;;6.82;100.00;102316.22;6219975;23;20320;-80
2023/05/29 05:12:37;;;;;;;4.88;2.10;;;;;;;7.37;100.00;102327.31;6245066;23;20004;-79
2023/05/29 05:15:03;;;;;;;7.68;2.15;;;;;;;8.00;100.00;102325.13;6245443;23;20024;-79
2023/05/29 05:17:29;;;;;;;5.18;2.17;;;;;;;8.35;100.00;102333.88;6219728;23;20008;-78
2023/05/29 05:19:55;;;;;;;5.25;2.22;;;;;;;8.24;100.00;102325.84;6195066;23;20004;-78
2023/05/29 05:22:21;;;;;;;8.02;2.78;;;;;;;8.34;100.00;102326.84;6195065;23;20028;-79
2023/05/29 05:24:47;;;;;;;5.43;1.85;;;;;;;8.74;100.00;102320.97;6219827;23;20012;-79
2023/05/29 05:27:13;;;;;;;5.18;2.35;;;;;;;9.29;100.00;102328.94;6245293;23;20004;-80
2023/05/29 05:29:38;;;;;;;2.75;1.75;;;;;;;9.78;100.00;102324.75;6219974;23;20015;-78
2023/05/29 05:32:04;;;;;;;4.88;2.40;;;;;;;9.44;100.00;102324.94;6219728;23;20371;-78
2023/05/29 05:34:30;;;;;;;4.15;2.03;;;;;;;8.92;100.00;102305.19;6244948;23;20007;-78
2023/05/29 05:36:55;;;;;;;3.22;1.45;;;;;;;8.78;100.00;102324.22;6246411;22;20004;-78
2023/05/29 05:39:21;;;;;;;6.15;2.38;;;;;;;8.93;100.00;102339.06;6219841;23;20008;-78
2023/05/29 05:41:46;;;;;;;5.50;2.60;;;;;;;9.75;100.00;102337.59;6195188;23;20305;-78
2023/05/29 05:44:12;;;;;;;1.92;1.30;;;;;;;10.65;100.00;102343.13;6245913;23;20026;-78
2023/05/29 05:46:38;;;;;;;4.10;1.60;;;;;;;11.23;100.00;102340.53;6249873;23;20004;-78
2023/05/29 05:49:03;;;;;;;4.95;1.83;;;;;;;11.86;96.34;102352.69;6244921;23;20008;-78
2023/05/29 05:51:29;;;;;;;6.50;2.17;;;;;;;12.23;92.87;102341.94;6219654;23;20011;-78
2023/05/29 05:53:54;;;;;;;7.35;2.22;;;;;;;12.58;86.74;102334.97;6245103;23;20004;-79
2023/05/29 05:56:20;;;;;;;3.15;1.67;;;;;;;12.82;85.29;102347.88;6244805;23;20036;-78
2023/05/29 05:58:46;;;;;;;7.95;2.20;;;;;;;13.13;83.38;102344.84;6219741;23;20494;-78
2023/05/29 06:01:11;;;;;;;4.38;2.30;;;;;;;13.46;77.68;102342.47;6246856;22;20123;-78
2023/05/29 06:03:37;;;;;;;2.55;1.55;;;;;;;13.64;78.43;102349.53;6194529;23;20016;-79
2023/05/29 06:06:03;;;;;;;6.70;1.92;;;;;;;13.76;77.36;102347.44;6219783;23;20000;-78
2023/05/29 06:08:30;;;;;;;4.75;1.88;;;;;;;13.94;75.46;102358.19;6169894;23;20387;-78
2023/05/29 06:10:56;;;;;;;7.70;2.83;;;;;;;14.09;73.10;102353.06;6246000;23;20000;-78
2023/05/29 06:13:21;;;;;;;10.57;2.00;;;;;;;14.29;72.72;102359.09;6169700;23;20111;-79
2023/05/29 06:15:47;;;;;;;6.00;2.40;;;;;;;14.30;71.12;102360.78;6246373;23;20008;-79
2023/05/29 06:18:13;;;;;;;6.32;2.33;;;;;;;14.49;70.57;102355.09;6219357;23;20012;-78
2023/05/29 06:20:38;;;;;;;5.25;1.80;;;;;;;14.74;68.89;102366.09;6246159;23;20429;-79
2023/05/29 06:23:04;;;;;;;5.75;1.88;;;;;;;14.93;67.19;102364.94;6219549;23;20000;-80
2023/05/29 06:25:33;;;;;;;5.28;1.88;;;;;;;15.17;66.40;102369.56;6219286;23;20008;-80
2023/05/29 06:28:00;;;;;;;4.63;2.05;;;;;;;15.33;66.23;102372.31;6220395;23;20004;-79
2023/05/29 06:30:25;;;;;;;7.90;2.50;;;;;;;15.57;63.90;102363.31;6194591;23;20012;-79
2023/05/29 06:32:51;;;;;;;8.27;2.03;;;;;;;15.76;63.61;102366.75;6246050;23;20076;-79
2023/05/29 06:35:16;;;;;;;3.22;1.70;;;;;;;15.97;62.65;102355.34;6246386;23;20005;-79
2023/05/29 06:37:42;;;;;;;9.38;2.22;;;;;;;16.16;60.28;102364.97;6219410;23;20035;-79
2023/05/29 06:40:17;;;;;;;7.15;2.13;;;;;;;16.07;60.23;102361.44;6195968;23;20031;-79
2023/05/29 06:42:45;;;;;;;5.75;2.80;;;;;;;16.23;59.45;102368.69;6194428;23;20432;-79
2023/05/29 06:45:14;;;;;;;2.00;1.15;;;;;;;16.43;58.15;102352.84;6219693;23;20440;-79
2023/05/29 06:47:41;;;;;;;2.22;1.30;;;;;;;16.59;58.55;102354.63;6170074;23;20008;-78
2023/05/29 06:50:07;;;;;;;4.45;2.05;;;;;;;16.87;58.44;102347.75;6169825;23;20004;-78
2023/05/29 06:52:33;;;;;;;6.65;1.88;;;;;;;17.13;55.94;102363.72;6219143;23;20332;-79
2023/05/29 06:54:59;;;;;;;2.67;1.80;;;;;;;17.36;55.37;102362.88;6194497;23;20008;-78
2023/05/29 06:57:25;;;;;;;4.28;2.30;;;;;;;17.52;52.81;102356.47;6221563;23;20067;-79
2023/05/29 06:59:50;;;;;;;8.50;2.95;;;;;;;17.61;54.22;102346.38;6226339;23;20050;-79
2023/05/29 07:02:16;;;;;;;8.88;2.40;;;;;;;18.12;53.71;102362.88;6248239;22;20004;-79
2023/05/29 07:04:41;;;;;;;5.75;1.75;;;;;;;18.66;52.35;102368.03;6221338;23;20341;-79
2023/05/29 07:07:07;;;;;;;5.05;1.95;;;;;;;19.29;50.06;102368.34;6246589;23;20008;-79
2023/05/29 07:09:33;;;;;;;7.78;2.50;;;;;;;19.70;50.11;102371.28;6220415;23;20008;-79
2023/05/29 07:11:58;;;;;;;3.65;2.10;;;;;;;20.34;50.34;102356.59;6221356;23;20421;-79
2023/05/29 07:14:24;;;;;;;4.35;1.65;;;;;;;21.32;48.39;102367.25;6220829;23;20009;-80
2023/05/29 07:16:50;;;;;;;4.63;1.77;;;;;;;21.79;45.31;102359.94;6220982;23;20332;-79
2023/05/29 07:19:16;;;;;;;4.65;2.10;;;;;;;21.50;44.08;102359.31;6220834;23;20010;-79
2023/05/29 07:21:42;;;;;;;5.75;2.10;;;;;;;21.06;43.37;102354.38;6246536;23;20337;-79
2023/05/29 07:24:07;;;;;;;1.63;1.23;;;;;;;21.58;43.83;102363.75;6247986;22;20007;-80
2023/05/29 07:26:33;;;;;;;5.43;2.22;;;;;;;21.64;43.75;102357.41;6221146;23;20010;-80
2023/05/29 07:28:58;;;;;;;7.30;2.67;;;;;;;21.84;44.03;102357.41;6248017;22;20066;-80
2023/05/29 07:31:30;;;;;;;7.00;2.25;;;;;;;21.76;41.68;102346.69;6246109;23;20379;-78
2023/05/29 07:33:56;;;;;;;3.90;2.22;;;;;;;21.40;42.37;102347.09;6220903;23;20008;-79
2023/05/29 07:36:21;;;;;;;5.75;2.50;;;;;;;21.40;43.73;102344.38;6220916;23;20023;-79
2023/05/29 07:38:47;;;;;;;8.80;2.40;;;;;;;22.03;42.32;102363.09;6247662;23;20000;-80
2023/05/29 07:41:15;;;;;;;8.27;2.20;;;;;;;22.47;42.04;102370.59;6220896;23;20083;-79
2023/05/29 07:43:46;;;;;;;6.93;2.33;;;;;;;22.41;42.10;102345.94;6245897;23;20000;-79
2023/05/29 07:46:11;;;;;;;5.55;2.47;;;;;;;22.32;40.85;102361.78;6246150;23;20004;-79
2023/05/29 07:48:37;;;;;;;6.30;2.05;;;;;;;21.95;41.37;102356.78;6246048;23;20146;-79
2023/05/29 07:51:03;;;;;;;4.97;2.17;;;;;;;21.96;42.31;102357.59;6245961;23;20001;-79
2023/05/29 07:53:28;;;;;;;4.15;1.85;;;;;;;22.16;43.19;102363.06;6246059;23;20036;-80
2023/05/29 07:55:54;;;;;;;6.70;2.30;;;;;;;22.53;41.46;102366.16;6195674;23;20008;-79
2023/05/29 07:58:20;;;;;;;4.35;1.83;;;;;;;22.51;41.55;102379.22;6247553;22;20298;-78
2023/05/29 08:00:46;;;;;;;6.18;2.45;;;;;;;22.45;40.56;102374.63;6220589;23;20428;-79
2023/05/29 08:03:11;;;;;;;5.40;2.40;;;;;;;22.06;41.78;102362.66;6220577;23;20141;-78
2023/05/29 08:05:37;;;;;;;5.82;2.20;;;;;;;22.21;41.75;102373.41;6245550;23;20083;-78
2023/05/29 08:08:03;;;;;;;6.10;2.33;;;;;;;22.49;42.38;102370.38;6245238;23;20008;-78
2023/05/29 08:10:29;;;;;;;4.38;2.10;;;;;;;22.85;41.56;102367.06;6245934;23;20020;-79
2023/05/29 08:12:54;;;;;;;12.63;3.60;;;;;;;23.02;41.13;102372.91;6247141;22;20439;-79
2023/05/29 08:15:20;;;;;;;6.68;3.80;;;;;;;23.37;41.33;102370.56;6247564;22;20008;-78
2023/05/29 08:17:45;;;;;;;10.52;4.30;;;;;;;24.01;41.50;102379.56;6195490;23;20387;-78
2023/05/29 08:20:11;;;;;;;5.57;2.63;;;;;;;24.57;38.79;102381.31;6220487;23;20004;-78
2023/05/29 08:22:37;;;;;;;9.75;3.58;;;;;;;24.57;39.84;102380.47;6195510;23;20000;-79
2023/05/29 08:25:03;;;;;;;10.05;4.70;;;;;;;24.98;38.83;102382.47;6245753;23;20352;-79
2023/05/29 08:27:28;;;;;;;6.35;2.50;;;;;;;25.36;37.17;102381.31;6245842;23;20122;-79
2023/05/29 08:29:54;;;;;;;7.30;2.35;;;;;;;25.55;37.24;102373.81;6220531;23;20004;-79
2023/05/29 08:32:21;;;;;;;7.95;2.95;;;;;;;25.54;37.52;102363.03;6245747;23;20004;-79
2023/05/29 08:34:46;;;;;;;12.15;4.45;;;;;;;25.83;37.35;102370.38;6220787;23;20008;-79
2023/05/29 08:37:13;;;;;;;6.05;2.58;;;;;;;25.33;35.80;102370.78;6246823;23;20010;-79
2023/05/29 08:39:39;;;;;;;6.63;2.80;;;;;;;24.74;38.81;102372.41;6195354;23;20063;-79
2023/05/29 08:42:07;;;;;;;6.60;2.42;;;;;;;25.12;39.09;102374.03;6245781;23;20008;-80
2023/05/29 08:44:33;;;;;;;12.07;3.00;;;;;;;25.70;35.95;102372.53;6219920;23;20032;-79
2023/05/29 08:47:03;;;;;;;5.88;2.45;;;;;;;25.60;35.92;102371.19;6245736;23;20023;-78
2023/05/29 08:49:35;;;;;;;7.25;2.63;;;;;;;24.93;37.92;102362.25;6245427;23;20004;-79
2023/05/29 08:52:10;;;;;;;4.85;1.85;;;;;;;24.33;39.79;102368.44;6195324;23;20491;-79
2023/05/29 08:54:36;;;;;;;6.28;2.58;;;;;;;23.66;41.09;102365.50;6220535;23;20004;-78
2023/05/29 08:57:03;;;;;;;7.13;2.70;;;;;;;23.19;41.13;102356.78;6220212;23;20000;-78
2023/05/29 08:59:30;;;;;;;9.15;3.58;;;;;;;23.83;42.15;102369.38;6220331;23;20432;-79
2023/05/29 09:01:56;;;;;;;4.80;2.90;;;;;;;24.48;40.41;102368.94;6245664;23;20008;-79
2023/05/29 09:04:22;;;;;;;8.88;4.18;;;;;;;24.97;40.04;102369.78;6245342;23;20485;-78
2023/05/29 09:06:52;;;;;;;9.57;5.03;;;;;;;25.45;39.15;102371.63;6246984;22;20075;-80
2023/05/29 09:09:18;;;;;;;7.00;3.50;;;;;;;25.80;36.87;102369.97;6195533;23;20451;-79
2023/05/29 09:11:44;;;;;;;6.85;2.83;;;;;;;25.49;37.46;102371.16;6245279;23;20007;-79
2023/05/29 09:14:36;;;;;;;8.20;2.92;;;;;;;25.71;37.25;102372.25;6245045;23;20004;-79
2023/05/29 09:17:03;;;;;;;9.43;4.20;;;;;;;25.38;39.38;102376.41;6220040;23;20000;-79
2023/05/29 09:19:30;;;;;;;10.50;4.05;;;;;;;25.29;38.31;102377.81;6246458;22;20032;-79
2023/05/29 09:22:24;;;;;;;7.88;3.10;;;;;;;25.28;39.32;102375.31;6244975;23;20004;-79
2023/05/29 09:24:51;;;;;;;9.45;3.72;;;;;;;25.73;38.90;102367.38;6220504;22;20466;-80
2023/05/29 09:27:17;;;;;;;7.25;3.40;;;;;;;26.21;38.04;102369.06;6246402;22;20004;-80
2023/05/29 09:29:45;;;;;;;8.98;3.60;;;;;;;26.61;37.97;102356.41;6245384;23;20435;-80
2023/05/29 09:32:16;;;;;;;7.38;3.28;;;;;;;27.21;36.95;102361.47;6219816;23;20054;-79
2023/05/29 09:34:43;;;;;;;5.90;2.13;;;;;;;27.55;36.22;102372.53;6170180;23;20335;-80
2023/05/29 09:37:09;;;;;;;9.52;3.13;;;;;;;27.59;35.90;102368.19;6194592;23;20000;-79
2023/05/29 09:39:41;;;;;;;6.43;2.90;;;;;;;27.50;36.75;102373.28;6219538;23;20045;-79
2023/05/29 09:42:07;;;;;;;7.45;4.18;;;;;;;27.48;35.81;102355.28;6244961;23;20069;-79
2023/05/29 09:44:32;;;;;;;9.55;2.95;;;;;;;27.49;36.34;102373.53;6219751;23;20468;-79
2023/05/29 09:46:59;;;;;;;13.13;4.00;;;;;;;27.15;36.85;102352.22;6245089;23;20003;-79
2023/05/29 09:49:26;;;;;;;6.50;3.55;;;;;;;27.27;37.37;102359.63;6244669;23;20004;-79
2023/05/29 09:51:55;;;;;;;22.20;9.52;;;;;;;27.34;36.30;102366.66;6194725;23;20083;-79
2023/05/29 09:54:20;;;;;;;8.70;4.20;;;;;;;27.53;37.60;102369.19;6245072;23;20022;-79
2023/05/29 09:56:47;;;;;;;8.32;3.15;;;;;;;27.94;34.60;102367.91;6244592;23;20083;-79
2023/05/29 09:59:14;;;;;;;7.15;3.05;;;;;;;27.62;36.17;102354.69;6244623;23;20087;-80
2023/05/29 10:01:44;;;;;;;8.73;3.47;;;;;;;27.00;38.52;102362.16;6219685;23;20129;-78
2023/05/29 10:04:10;;;;;;;5.95;2.85;;;;;;;27.26;36.58;102358.78;6170159;23;20035;-79
2023/05/29 10:06:38;;;;;;;9.00;3.53;;;;;;;27.03;38.90;102354.19;6194396;23;20004;-79
2023/05/29 10:09:12;;;;;;;11.13;3.22;;;;;;;27.29;37.36;102358.28;6194298;23;20345;-78
2023/05/29 10:11:38;;;;;;;5.43;2.08;;;;;;;26.76;36.95;102365.00;6220300;23;20019;-78
2023/05/29 10:14:05;;;;;;;9.48;3.58;;;;;;;26.10;39.62;102356.97;6194325;23;20054;-78
2023/05/29 10:16:36;;;;;;;7.38;3.60;;;;;;;25.82;40.63;102362.31;6169793;23;20003;-78
2023/05/29 10:19:01;;;;;;;6.72;3.08;;;;;;;25.69;40.28;102346.88;6220202;23;20004;-78
2023/05/29 10:21:28;;;;;;;13.30;3.30;;;;;;;25.71;40.59;102355.72;6219726;23;20058;-78
2023/05/29 10:23:54;;;;;;;8.88;3.45;;;;;;;25.94;40.40;102359.63;6169596;23;20004;-78
2023/05/29 10:26:28;;;;;;;5.60;3.15;;;;;;;26.49;40.05;102354.50;6194413;23;20092;-79
2023/05/29 10:29:13;;;;;;;8.70;3.30;;;;;;;26.29;38.71;102354.88;6170126;23;20009;-78
2023/05/29 10:32:16;;;;;;;5.53;3.17;;;;;;;26.24;38.95;102370.50;6221122;23;20004;-78
2023/05/29 10:35:33;;;;;;;5.90;2.65;;;;;;;26.75;36.72;102371.59;6221660;23;19996;-79
2023/05/29 10:38:13;;;;;;;6.95;3.08;;;;;;;26.08;39.42;102358.28;6181231;23;20460;-78
2023/05/29 10:40:39;;;;;;;8.48;3.58;;;;;;;25.86;40.17;102358.88;6221516;23;20000;-78
2023/05/29 10:43:08;;;;;;;8.48;3.03;;;;;;;26.24;40.21;102357.53;6221693;23;20306;-78
2023/05/29 10:45:40;;;;;;;9.88;3.75;;;;;;;26.50;39.44;102360.84;6248255;23;20004;-78
2023/05/29 10:48:11;;;;;;;6.70;3.78;;;;;;;26.94;38.40;102363.97;6248386;23;20007;-79
2023/05/29 10:50:41;;;;;;;7.60;3.10;;;;;;;27.11;37.97;102361.25;6221600;23;20004;-79
2023/05/29 10:53:10;;;;;;;14.80;4.60;;;;;;;27.59;37.58;102359.88;6196156;23;20344;-79
2023/05/29 10:55:39;;;;;;;6.63;3.60;;;;;;;27.88;37.09;102368.09;6196748;23;20004;-79
2023/05/29 10:58:06;;;;;;;6.13;3.20;;;;;;;28.47;35.99;102355.41;6171509;23;20055;-77
2023/05/29 11:00:32;;;;;;;9.52;3.35;;;;;;;28.71;35.20;102361.50;6184506;23;20032;-78
2023/05/29 11:03:02;;;;;;;6.45;3.47;;;;;;;28.48;35.40;102362.63;6246504;23;20007;-78
2023/05/29 11:05:28;;;;;;;8.27;3.08;;;;;;;28.36;36.64;102355.50;6196225;23;20019;-80
2023/05/29 11:08:03;;;;;;;9.88;3.58;;;;;;;28.85;36.37;102361.13;6248275;23;20004;-78
2023/05/29 11:11:08;;;;;;;9.18;3.53;;;;;;;29.56;34.50;102366.53;6222103;23;20023;-78
2023/05/29 11:13:35;;;;;;;9.30;3.90;;;;;;;30.21;34.26;102354.19;6221261;23;20432;-79
2023/05/29 11:16:14;;;;;;;8.10;3.38;;;;;;;30.34;31.95;102360.41;6221390;23;20008;-79
2023/05/29 11:18:41;;;;;;;7.78;3.33;;;;;;;30.32;32.55;102359.84;6246553;23;20015;-78
2023/05/29 11:21:15;;;;;;;7.70;3.45;;;;;;;30.03;33.34;102357.44;6246620;23;20000;-78
2023/05/29 11:23:42;;;;;;;7.53;3.47;;;;;;;30.10;33.50;102358.03;6196200;23;20380;-80
2023/05/29 11:26:09;;;;;;;7.65;3.50;;;;;;;30.52;33.87;102359.91;6246466;23;20008;-78